Portada
METAR-TAF:

METAR-TAF

Aeropuertos :

Aeropuerto Internacional Jinnah

Karachi, Pakistán

latitud: 24-54N, longitud: 067-08E, altitud: 21 m

Observación

El informe se hizo hace 44 minutos, a las 02:55 UTC
Viento calma
Temperatura 23°C
Humedad 57%
Presión 1016 hPa
Visibilidad: 4000 m
calima

METAR: OPKC 220255Z 00000KT 4000 HZ NSC 23/14 Q1016 NOSIG

Hora: 08:39 (03:39 UTC)

Pronóstico

El informe se hizo hace 3 horas y 9 minutos, a las 00:30 UTC
Pronóstico válido del 22 a las 03 UTC al 22 a las 12 UTC
Viento 5 kt del oeste con ráfagas de 15 kt
Visibilidad: 6000 m

TAF: OPKC 220030Z 2203/2212 28005G15KT 6000 NSC

Observaciones y pronósticos meteorológicos de más de 4000 aeropuertos (mensajes METAR y TAF).

Los puntos amarillos y rojos representan las estaciones disponibles.

Ponga el ratón en el punto deseado para ver el nombre de la estación.

Haga clic para ver las observaciones y los pronósticos meteorológicos.

Para cambiar el mapa : haga clic en los botones verdes con una cruz de color negro para hacer un zoom, en el botón verde con un guión para alejar o en las flechas verdes para mapas adyacentes.


METAR-TAF: